Historyczne dane pomiarowe

Dodano dane terminowe – wersja testowa.

Dane z okresu 1951-2019

Wersja bazy: 1.34 [2019-03-16, lista zmian], aktualizacja planowana na 2019-04-15

Dane meteo z obszaru Polski uzyskane na podstawie danych udostępnionych przez Instytut Meteorologii i Gospodarki Wodnej – Państwowy Instytut Badawczy.

 

Wybierz Datę:    

       

TemperaturaWilgotnośćWiatrCiśnienieOpadyŚniegCzas trwania zjawisk
 Stacja t tx tn tng RH VA  wxwx mslp ppp RRR   cm mm wxwxwxwxwxwxwx
1995-09-11 14.2 21.6 7.5 5.3 89.3- 6.7 1.3---- 11.0------------
1995-09-12 15.6 21.8 12.0 8.9 89.8- 5.7 1.3---- 0.0------------
1995-09-13 15.6 23.3 7.9 5.2 87.3- 5.7 2.3---- 0.0------------
1995-09-14 17.9 20.2 16.9 13.9 94.5- 7.3 1.7---- 0.0------------
1995-09-15 14.8 17.0 13.5 12.4 97.5- 8.0 1.3---- 2.2------------
1995-09-16 14.6 18.3 12.3 11.4 89.5- 7.3 1.0---- 0.0------------
1995-09-17 13.5 17.2 10.0 7.3 94.8- 8.0 1.0---- 0.0------------
1995-09-18 12.2 14.8 10.1 6.9 95.3- 8.0 1.7---- 0.0------------
1995-09-19 11.5 13.0 10.5 9.7 93.5- 8.0 2.3---- 0.0------------
1995-09-20 10.4 12.2 8.4 7.9 95.5- 8.0 2.0---- 16.8------------
1995-09-21 12.5 16.3 11.0 9.9 90.5- 6.7 2.7---- 0.0------------
1995-09-22 10.4 17.6 3.9 0.2 88.3- 5.7 1.7---- 0.0------------
1995-09-23 13.3 17.0 10.2 7.9 93.8- 6.0 1.0---- 0.0------------
1995-09-24 12.0 18.0 6.5 5.3 89.5- 6.7 1.3---- 0.0------------
1995-09-25 13.7 20.3 6.2 2.3 86.5- 3.7 1.3---- 0.0------------
1995-09-26 13.1 17.2 8.9 4.3 87.8- 7.0 1.3---- 9.5------------
1995-09-27 11.4 13.8 10.4 9.9 97.3- 8.0 1.3---- 5.4------------
1995-09-28 9.0 11.8 7.2 5.3 79.8- 6.3 3.0---- 0.6------------
1995-09-29 6.7 11.0 3.9 1.2 89.8- 3.7 2.7---- 0.0------------
1995-09-30 5.8 10.4 3.4 0.8 90.3- 3.7 2.7---- 0.2------------
1995-10-01 6.0 11.3 1.9 -0.4 87.3- 5.3 2.7---- 0.0------------
1995-10-02 10.6 15.4 6.2 3.8 88.8- 4.7 2.3---- 0.0------------
1995-10-03 9.7 19.6 1.4 -1.2 87.5- 5.0 1.3---- 0.0------------
1995-10-04 14.4 20.8 10.8 7.1 91.3- 5.3 1.0---- 0.0------------
1995-10-05 14.4 22.6 8.5 5.8 90.3- 4.7 1.0---- 0.0------------
1995-10-06 14.4 18.8 10.9 7.1 92.5- 7.3 1.3---- 0.0------------
1995-10-07 14.5 20.8 9.5 5.2 94.0- 7.0 1.3---- 0.0------------
1995-10-08 14.7 17.3 11.6 7.9 98.5- 7.3 1.0---- 1.2------------
1995-10-09 15.8 23.7 10.0 7.5 90.3- 2.3 1.0---- 0.0------------
1995-10-10 14.6 25.1 7.5 5.3 89.0- 1.3 1.3---- 0.0------------
153.1 ms

 

Źródłem pochodzenia danych jest Instytut Meteorologii i Gospodarki Wodnej – Państwowy Instytut Badawczy. Dane Instytutu Meteorologii i Gospodarki Wodnej – Państwowego Instytutu Badawczego zostały przetworzone.

Dane źródłowe można odnaleźć na stronie https://dane.imgw.pl